Time;durP1;ratioP1;P1;durP2;ratioP2;P2;SDS_P1;SDS_P2;PMS_P1;PMS_P2;Temp;Humidity;BMP_temperature;BMP_pressure;BME280_temperature;BME280_humidity;BME280_pressure;Samples;Min_cycle;Max_cycle;Signal;HPM_P1;HPM_P2
2021/12/18 00:00:43;;;;;;;3.95;2.42;;;31.40;98.50;;;;;;5087033;28;20429;-69
2021/12/18 00:03:11;;;;;;;6.07;2.92;;;31.80;97.80;;;;;;5090861;28;20101;-69
2021/12/18 00:05:38;;;;;;;6.32;2.65;;;31.80;97.30;;;;;;5090222;28;20031;-72
2021/12/18 00:08:05;;;;;;;8.50;3.38;;;32.10;96.30;;;;;;5088666;28;20036;-71
2021/12/18 00:10:33;;;;;;;4.85;3.20;;;32.30;95.60;;;;;;5090025;28;20050;-72
2021/12/18 00:13:01;;;;;;;6.72;2.70;;;32.10;96.10;;;;;;5089630;28;20020;-71
2021/12/18 00:15:30;;;;;;;8.15;2.65;;;31.90;95.60;;;;;;5091194;28;20114;-72
2021/12/18 00:17:58;;;;;;;7.10;2.42;;;31.70;96.60;;;;;;5091669;28;20016;-70
2021/12/18 00:20:27;;;;;;;6.38;2.38;;;32.00;96.70;;;;;;5090020;28;20048;-73
2021/12/18 00:22:55;;;;;;;5.45;2.58;;;32.30;95.90;;;;;;5072359;28;20035;-73
2021/12/18 00:25:23;;;;;;;4.88;2.47;;;32.80;95.40;;;;;;5072467;28;20422;-72
2021/12/18 00:27:51;;;;;;;5.32;3.30;;;33.20;94.70;;;;;;5072259;28;20531;-74
2021/12/18 00:30:19;;;;;;;15.52;12.07;;;33.60;93.00;;;;;;5090773;28;20046;-70
2021/12/18 00:32:47;;;;;;;10.90;7.57;;;34.10;93.60;;;;;;5090386;28;20020;-72
2021/12/18 00:35:14;;;;;;;4.22;2.90;;;34.20;92.90;;;;;;5069877;28;20064;-72
2021/12/18 00:37:42;;;;;;;6.90;3.47;;;34.30;93.00;;;;;;5088901;28;20020;-70
2021/12/18 00:40:17;;;;;;;3.97;2.42;;;34.30;91.80;;;;;;5089089;28;20035;-72
2021/12/18 00:42:51;;;;;;;4.13;2.17;;;34.60;91.70;;;;;;5089766;28;20066;-72
2021/12/18 00:45:19;;;;;;;4.60;2.40;;;34.60;91.10;;;;;;5088393;28;20039;-70
2021/12/18 00:47:47;;;;;;;4.03;3.13;;;34.70;88.80;;;;;;5087426;28;20016;-70
2021/12/18 00:50:18;;;;;;;4.22;2.50;;;35.00;86.70;;;;;;5088714;28;20021;-72
2021/12/18 00:52:47;;;;;;;9.68;4.90;;;35.10;84.90;;;;;;5086562;28;20024;-68
2021/12/18 00:55:16;;;;;;;5.65;2.33;;;35.00;83.00;;;;;;5087762;28;20100;-73
2021/12/18 00:57:45;;;;;;;5.68;2.78;;;34.80;82.90;;;;;;5087651;28;20024;-65
2021/12/18 01:00:24;;;;;;;5.90;2.10;;;34.90;83.60;;;;;;5088057;28;20027;-71
2021/12/18 01:02:57;;;;;;;4.15;2.80;;;35.10;82.00;;;;;;5087570;28;20189;-72
2021/12/18 01:05:24;;;;;;;4.00;2.78;;;35.40;81.60;;;;;;5088952;28;20031;-66
2021/12/18 01:07:55;;;;;;;6.40;2.90;;;35.70;83.10;;;;;;5088901;28;20016;-66
2021/12/18 01:13:10;;;;;;;6.40;3.03;;;36.30;77.00;;;;;;5090341;28;20035;-68
2021/12/18 01:15:44;;;;;;;7.30;2.20;;;36.50;81.00;;;;;;5088360;28;20120;-67
2021/12/18 01:23:41;;;;;;;7.57;1.90;;;37.00;75.10;;;;;;5088575;28;20039;-69
2021/12/18 01:26:08;;;;;;;2.65;1.60;;;37.30;72.20;;;;;;5089444;28;21624;-69
2021/12/18 01:28:35;;;;;;;4.40;2.00;;;37.60;70.80;;;;;;5087894;28;20024;-69
2021/12/18 01:31:03;;;;;;;5.03;2.20;;;37.70;70.00;;;;;;5094121;28;20023;-69
2021/12/18 01:33:32;;;;;;;3.00;2.38;;;38.20;67.30;;;;;;5088047;28;20023;-69
2021/12/18 01:36:01;;;;;;;3.88;1.60;;;38.40;65.80;;;;;;5087793;28;20063;-66
2021/12/18 01:38:30;;;;;;;3.40;1.88;;;38.20;61.10;;;;;;5070818;28;20024;-65
2021/12/18 01:41:03;;;;;;;5.28;1.95;;;38.10;61.90;;;;;;5086597;28;20472;-70
2021/12/18 01:46:38;;;;;;;3.50;1.50;;;38.40;62.10;;;;;;5087339;28;20272;-70
2021/12/18 01:52:16;;;;;;;3.70;2.30;;;38.50;59.80;;;;;;5084333;28;20035;-70
2021/12/18 01:54:45;;;;;;;2.45;1.70;;;38.50;58.70;;;;;;5088284;28;20027;-70
2021/12/18 01:57:13;;;;;;;3.40;1.63;;;38.60;57.50;;;;;;5086695;28;20407;-69
2021/12/18 01:59:47;;;;;;;3.30;1.35;;;38.70;56.40;;;;;;5087525;28;20031;-74
2021/12/18 02:02:15;;;;;;;5.88;2.08;;;38.60;56.70;;;;;;5087545;28;20043;-67
2021/12/18 02:04:43;;;;;;;2.67;1.80;;;38.70;56.40;;;;;;5087547;28;20055;-67
2021/12/18 02:07:10;;;;;;;1.75;1.13;;;39.00;55.40;;;;;;5087023;28;20463;-67
2021/12/18 02:12:10;;;;;;;3.63;1.58;;;39.40;55.10;;;;;;5086237;28;20028;-71
2021/12/18 02:23:02;;;;;;;3.72;1.35;;;40.50;53.30;;;;;;5082579;28;20032;-69
2021/12/18 02:25:31;;;;;;;5.75;3.20;;;40.50;53.30;;;;;;5085686;28;20032;-71
2021/12/18 02:27:59;;;;;;;2.88;2.00;;;40.50;51.60;;;;;;5085647;28;20024;-72
2021/12/18 02:30:26;;;;;;;5.70;4.00;;;40.50;50.60;;;;;;5070961;28;20154;-68
2021/12/18 02:32:53;;;;;;;4.57;3.15;;;40.80;50.80;;;;;;5086317;28;20643;-62
2021/12/18 02:35:46;;;;;;;2.85;1.95;;;40.50;50.10;;;;;;5087453;28;20031;-66
2021/12/18 02:38:19;;;;;;;3.47;1.80;;;40.30;48.90;;;;;;5086227;28;20035;-73
2021/12/18 02:43:38;;;;;;;2.85;1.88;;;40.40;49.60;;;;;;5085235;28;20442;-74
2021/12/18 02:46:07;;;;;;;4.30;1.60;;;41.00;50.70;;;;;;5066442;28;20128;-70
2021/12/18 02:48:39;;;;;;;3.05;1.48;;;41.20;48.90;;;;;;5085927;28;20016;-66
2021/12/18 02:51:08;;;;;;;2.28;1.45;;;41.30;49.50;;;;;;5100468;28;20369;-65
2021/12/18 02:53:36;;;;;;;3.85;1.55;;;41.60;49.10;;;;;;5083826;28;20054;-66
2021/12/18 02:56:09;;;;;;;6.50;2.13;;;41.90;49.80;;;;;;5069679;28;20028;-67
2021/12/18 02:58:45;;;;;;;3.10;1.52;;;42.30;48.50;;;;;;5084959;28;20149;-69
2021/12/18 03:01:15;;;;;;;3.15;1.48;;;42.50;49.10;;;;;;5077019;28;20024;-70
2021/12/18 03:03:43;;;;;;;2.97;1.70;;;42.70;48.60;;;;;;5059329;28;20231;-70
2021/12/18 03:06:30;;;;;;;3.70;1.55;;;42.90;47.90;;;;;;5056990;28;20345;-68
2021/12/18 03:25:29;;;;;;;2.90;1.52;;;41.10;46.20;;;;;;5078372;28;20030;-69
2021/12/18 03:27:58;;;;;;;4.43;1.63;;;40.40;46.30;;;;;;5079315;28;20635;-64
2021/12/18 03:30:26;;;;;;;2.08;1.30;;;40.40;46.50;;;;;;5060481;28;20136;-71
2021/12/18 03:32:53;;;;;;;2.05;1.70;;;40.60;47.40;;;;;;5079811;28;20054;-67
2021/12/18 03:35:20;;;;;;;3.13;1.50;;;40.80;47.50;;;;;;5079147;28;20092;-70
2021/12/18 03:37:48;;;;;;;4.20;1.42;;;40.90;48.00;;;;;;5079708;28;20040;-69
2021/12/18 03:40:18;;;;;;;4.75;1.40;;;41.20;48.10;;;;;;5078594;28;20021;-68
2021/12/18 03:42:46;;;;;;;3.22;1.75;;;41.80;46.90;;;;;;5078991;28;20132;-65
2021/12/18 03:45:14;;;;;;;3.03;1.55;;;42.00;46.90;;;;;;5077897;28;20044;-62
2021/12/18 03:47:42;;;;;;;3.75;1.25;;;42.10;45.20;;;;;;5061358;28;20024;-67
2021/12/18 03:50:09;;;;;;;4.68;1.80;;;41.00;45.30;;;;;;5078272;28;20017;-71
2021/12/18 03:52:36;;;;;;;2.45;1.60;;;40.60;47.60;;;;;;5076995;28;20028;-68
2021/12/18 03:55:05;;;;;;;1.48;1.10;;;40.40;46.90;;;;;;5077932;28;20471;-68
2021/12/18 03:57:32;;;;;;;3.60;1.58;;;40.30;48.20;;;;;;5059905;28;20531;-68
2021/12/18 03:59:59;;;;;;;2.30;1.30;;;40.70;47.30;;;;;;5077291;28;20032;-69
2021/12/18 04:02:26;;;;;;;3.15;1.30;;;41.40;47.30;;;;;;5077422;28;20028;-69
2021/12/18 04:04:53;;;;;;;3.40;1.63;;;41.90;46.10;;;;;;5060165;28;20059;-68
2021/12/18 04:07:20;;;;;;;3.08;1.92;;;42.10;46.20;;;;;;5078776;28;20693;-68
2021/12/18 04:09:48;;;;;;;4.93;1.88;;;42.40;45.20;;;;;;5079039;28;20099;-67
2021/12/18 04:12:16;;;;;;;3.33;1.58;;;42.60;45.60;;;;;;5080406;28;20115;-68
2021/12/18 04:14:44;;;;;;;4.72;1.88;;;42.90;45.50;;;;;;5060825;28;20068;-68
2021/12/18 04:17:11;;;;;;;3.17;2.03;;;42.60;43.20;;;;;;5079046;28;20555;-62
2021/12/18 04:19:38;;;;;;;2.40;1.35;;;42.20;44.10;;;;;;5061208;28;20031;-68
2021/12/18 04:22:05;;;;;;;5.90;1.73;;;42.30;43.40;;;;;;5061427;28;20380;-68
2021/12/18 04:24:32;;;;;;;3.70;2.15;;;42.90;44.10;;;;;;5079404;28;20099;-66
2021/12/18 04:26:59;;;;;;;4.53;1.38;;;43.00;43.80;;;;;;5079516;28;20036;-66
2021/12/18 04:29:26;;;;;;;2.80;1.30;;;43.10;43.10;;;;;;5078531;28;20381;-66
2021/12/18 04:31:53;;;;;;;3.10;1.42;;;43.40;42.70;;;;;;5079133;28;20446;-67
2021/12/18 04:34:20;;;;;;;2.80;1.30;;;43.20;44.20;;;;;;5079286;28;20028;-62
2021/12/18 04:36:47;;;;;;;2.33;1.30;;;43.00;42.50;;;;;;5080104;28;20031;-62
2021/12/18 04:39:14;;;;;;;3.45;1.15;;;43.10;42.30;;;;;;5059817;28;20032;-66
2021/12/18 04:41:48;;;;;;;6.85;4.60;;;42.40;41.30;;;;;;5079217;28;20061;-66
2021/12/18 04:44:16;;;;;;;4.88;2.90;;;41.90;43.00;;;;;;5079242;28;20020;-63
2021/12/18 04:46:43;;;;;;;2.65;1.50;;;42.20;43.50;;;;;;5079379;28;20024;-68
2021/12/18 04:49:10;;;;;;;3.55;1.10;;;42.10;43.40;;;;;;4376187;28;10000031;-68
2021/12/18 04:51:38;;;;;;;3.30;1.33;;;41.20;43.70;;;;;;5074943;28;20067;-67
2021/12/18 04:54:05;;;;;;;5.38;1.55;;;40.30;44.80;;;;;;5075307;28;20032;-70
2021/12/18 04:56:32;;;;;;;3.05;1.23;;;39.70;45.20;;;;;;5074651;28;20055;-67
2021/12/18 04:58:59;;;;;;;2.95;1.17;;;39.30;45.70;;;;;;5075303;28;20039;-66
2021/12/18 05:01:27;;;;;;;5.88;1.20;;;39.00;46.40;;;;;;5075371;28;20318;-66
2021/12/18 05:03:54;;;;;;;6.35;1.13;;;38.50;46.10;;;;;;5074733;28;20024;-70
2021/12/18 05:06:21;;;;;;;1.67;1.20;;;38.20;46.60;;;;;;5074492;28;20020;-66
2021/12/18 05:08:51;;;;;;;4.78;1.20;;;38.00;46.60;;;;;;5055210;28;20500;-67
2021/12/18 05:11:18;;;;;;;1.45;1.08;;;38.20;46.90;;;;;;5073471;28;20026;-67
2021/12/18 05:13:45;;;;;;;2.60;1.17;;;38.50;47.50;;;;;;5073249;28;20024;-68
2021/12/18 05:16:12;;;;;;;3.58;1.45;;;38.90;47.20;;;;;;5072972;28;20024;-68
2021/12/18 05:18:39;;;;;;;3.22;1.27;;;40.00;47.20;;;;;;5073175;28;20040;-66
2021/12/18 05:21:05;;;;;;;2.60;1.10;;;40.80;45.90;;;;;;5072609;28;20447;-71
2021/12/18 05:23:32;;;;;;;3.90;1.20;;;40.70;44.70;;;;;;5073195;28;20154;-70
2021/12/18 05:25:59;;;;;;;1.90;1.15;;;40.80;44.50;;;;;;5072871;28;20082;-62
2021/12/18 05:28:26;;;;;;;2.25;1.23;;;40.90;45.70;;;;;;5072752;28;20028;-69
2021/12/18 05:30:53;;;;;;;3.00;1.58;;;40.60;44.30;;;;;;5073452;28;20016;-65
2021/12/18 05:33:20;;;;;;;1.65;1.00;;;40.30;44.30;;;;;;5072777;28;20039;-68
2021/12/18 05:35:47;;;;;;;1.80;0.95;;;39.80;45.00;;;;;;5072864;28;20413;-68
2021/12/18 05:38:14;;;;;;;6.57;1.20;;;39.40;44.80;;;;;;5071887;28;20086;-62
2021/12/18 05:40:41;;;;;;;3.33;1.33;;;39.50;46.10;;;;;;5072419;28;20743;-70
2021/12/18 05:43:09;;;;;;;2.03;1.20;;;39.50;44.90;;;;;;4720319;28;10000486;-68
2021/12/18 05:45:40;;;;;;;2.97;1.30;;;40.00;43.90;;;;;;5077610;22;20156;-68
2021/12/18 05:48:13;;;;;;;2.28;1.00;;;40.60;43.20;;;;;;4851550;28;10000908;-70
2021/12/18 05:50:40;;;;;;;2.30;1.35;;;41.20;42.80;;;;;;5004258;28;20211;-70
2021/12/18 05:53:07;;;;;;;2.95;1.10;;;41.30;41.10;;;;;;5003392;28;20041;-68
2021/12/18 05:55:34;;;;;;;3.67;0.95;;;41.30;39.90;;;;;;5002649;28;20025;-70
2021/12/18 05:58:01;;;;;;;1.20;0.70;;;41.80;38.10;;;;;;5001167;28;20498;-69
2021/12/18 06:00:28;;;;;;;1.33;0.80;;;41.90;37.30;;;;;;5021725;28;20780;-64
2021/12/18 06:02:55;;;;;;;1.58;0.80;;;41.90;37.40;;;;;;5001025;28;20092;-68
2021/12/18 06:05:22;;;;;;;1.25;0.80;;;42.40;36.90;;;;;;5005163;28;20030;-70
2021/12/18 06:07:58;;;;;;;4.22;1.00;;;43.10;36.40;;;;;;5018459;28;20107;-67
2021/12/18 06:10:28;;;;;;;1.25;0.90;;;43.10;36.20;;;;;;5005791;28;20103;-67
2021/12/18 06:12:57;;;;;;;3.53;1.25;;;42.10;36.60;;;;;;5003230;28;20028;-67
2021/12/18 06:15:24;;;;;;;1.65;0.98;;;41.90;37.40;;;;;;5007117;28;20039;-70
2021/12/18 06:17:53;;;;;;;3.33;0.90;;;42.40;36.00;;;;;;5004882;28;20109;-64
2021/12/18 06:20:20;;;;;;;4.82;2.58;;;41.90;36.70;;;;;;5001476;28;20113;-70
2021/12/18 06:22:47;;;;;;;3.13;1.92;;;41.10;38.80;;;;;;5002576;28;20019;-70
2021/12/18 06:25:14;;;;;;;3.78;2.05;;;41.50;39.30;;;;;;5003017;28;20065;-70
2021/12/18 06:27:41;;;;;;;2.50;0.93;;;42.00;41.00;;;;;;5003094;28;20024;-72
2021/12/18 06:30:12;;;;;;;2.85;1.00;;;41.40;41.10;;;;;;5002652;28;20488;-69
2021/12/18 06:32:40;;;;;;;2.70;1.23;;;40.60;42.40;;;;;;5005429;28;20032;-72
2021/12/18 06:35:08;;;;;;;2.85;1.60;;;41.50;41.80;;;;;;5002429;28;20033;-70
2021/12/18 06:37:36;;;;;;;6.85;0.93;;;42.60;40.90;;;;;;5000216;28;20028;-68
2021/12/18 06:40:04;;;;;;;3.55;1.27;;;42.70;40.20;;;;;;5005477;28;20404;-69
2021/12/18 06:42:31;;;;;;;1.27;0.80;;;42.70;41.00;;;;;;5001923;28;20490;-69
2021/12/18 06:44:58;;;;;;;2.47;1.50;;;43.20;41.00;;;;;;5002444;28;20342;-70
2021/12/18 06:47:25;;;;;;;1.60;1.10;;;43.40;40.50;;;;;;4994947;28;20107;-66
2021/12/18 06:49:52;;;;;;;1.50;1.30;;;43.90;40.20;;;;;;4995104;28;20414;-70
2021/12/18 06:52:19;;;;;;;2.25;1.25;;;43.90;40.20;;;;;;5005308;28;20036;-67
2021/12/18 06:54:46;;;;;;;4.82;1.20;;;44.00;40.00;;;;;;5007690;28;20811;-68
2021/12/18 06:57:13;;;;;;;2.30;1.10;;;44.20;39.10;;;;;;5009440;28;20024;-70
2021/12/18 06:59:40;;;;;;;2.40;1.02;;;44.20;39.30;;;;;;5024827;28;20419;-71
2021/12/18 07:02:08;;;;;;;1.92;1.13;;;44.60;39.10;;;;;;5008233;28;20067;-67
2021/12/18 07:04:37;;;;;;;3.17;1.60;;;44.30;39.00;;;;;;5009732;28;20015;-68
2021/12/18 07:07:04;;;;;;;1.92;0.95;;;44.00;39.80;;;;;;5010511;28;20080;-67
2021/12/18 07:09:31;;;;;;;3.17;1.15;;;43.90;40.20;;;;;;5008804;28;20026;-67
2021/12/18 07:11:58;;;;;;;2.63;1.40;;;44.20;39.70;;;;;;5011670;28;20043;-66
2021/12/18 07:14:26;;;;;;;3.58;1.20;;;44.00;39.40;;;;;;5009812;28;20168;-66
2021/12/18 07:16:56;;;;;;;2.05;1.00;;;43.40;40.40;;;;;;4661060;28;9999786;-66
2021/12/18 07:19:25;;;;;;;3.95;1.20;;;43.50;40.60;;;;;;5003855;28;20137;-67
2021/12/18 07:21:53;;;;;;;3.30;1.15;;;43.20;40.40;;;;;;5008501;28;20416;-63
2021/12/18 07:24:20;;;;;;;1.20;1.10;;;43.30;41.20;;;;;;5007770;28;20025;-68
2021/12/18 07:26:48;;;;;;;3.00;1.10;;;43.70;40.90;;;;;;5002007;28;20066;-67
2021/12/18 07:29:16;;;;;;;2.60;1.27;;;42.40;40.90;;;;;;5004019;28;20380;-68
2021/12/18 07:31:44;;;;;;;2.58;1.15;;;41.00;43.00;;;;;;5005202;28;20105;-67
2021/12/18 07:34:12;;;;;;;4.13;1.23;;;39.80;44.00;;;;;;5004616;28;20060;-65
2021/12/18 07:36:40;;;;;;;2.40;1.20;;;39.00;45.70;;;;;;5003487;28;20278;-67
2021/12/18 07:39:07;;;;;;;4.40;1.20;;;38.30;46.00;;;;;;5005884;28;20758;-68
2021/12/18 07:41:35;;;;;;;1.35;1.10;;;37.90;46.40;;;;;;5005519;28;20472;-68
2021/12/18 07:44:08;;;;;;;1.48;1.20;;;37.50;47.30;;;;;;4877569;28;3670979;-68
2021/12/18 07:46:37;;;;;;;3.58;1.23;;;37.30;47.50;;;;;;5003964;28;20070;-67
2021/12/18 07:49:06;;;;;;;3.35;1.13;;;37.10;48.00;;;;;;4967057;28;20042;-67
2021/12/18 07:51:34;;;;;;;1.80;1.15;;;36.80;48.30;;;;;;4959411;28;20014;-67
2021/12/18 07:54:03;;;;;;;1.55;1.17;;;36.50;48.70;;;;;;4959407;28;20541;-67
2021/12/18 07:56:31;;;;;;;2.78;1.30;;;36.40;49.30;;;;;;4961370;28;20346;-71
2021/12/18 07:59:03;;;;;;;4.72;1.15;;;36.30;48.70;;;;;;4960729;28;20027;-67
2021/12/18 08:01:30;;;;;;;3.83;1.73;;;36.30;49.40;;;;;;4960771;28;20544;-69
2021/12/18 08:03:58;;;;;;;4.40;1.23;;;36.20;49.40;;;;;;4989014;28;20382;-68
2021/12/18 08:06:25;;;;;;;1.58;1.10;;;36.00;49.60;;;;;;4977773;28;20134;-64
2021/12/18 08:08:54;;;;;;;1.75;1.08;;;36.00;49.90;;;;;;4981485;28;20022;-65
2021/12/18 08:11:21;;;;;;;1.83;1.00;;;35.90;50.20;;;;;;4959659;28;20030;-68
2021/12/18 08:13:49;;;;;;;2.35;1.20;;;35.90;49.80;;;;;;4960075;28;20030;-67
2021/12/18 08:16:16;;;;;;;3.45;1.02;;;35.80;51.50;;;;;;4956573;28;20069;-70
2021/12/18 08:18:43;;;;;;;1.73;0.98;;;35.60;51.50;;;;;;4959077;28;20030;-67
2021/12/18 08:21:10;;;;;;;3.08;0.95;;;35.40;51.40;;;;;;4958613;28;20035;-68
2021/12/18 08:23:37;;;;;;;2.22;1.10;;;35.20;51.60;;;;;;4958710;28;20038;-66
2021/12/18 08:26:05;;;;;;;2.28;1.20;;;35.20;51.60;;;;;;4956768;28;20420;-67
2021/12/18 08:28:32;;;;;;;4.05;1.00;;;35.00;52.90;;;;;;4958301;28;20084;-67
2021/12/18 08:30:59;;;;;;;2.95;1.38;;;34.90;52.60;;;;;;4959500;28;20106;-66
2021/12/18 08:33:26;;;;;;;4.30;3.45;;;34.80;52.60;;;;;;4961129;28;20040;-72
2021/12/18 08:35:53;;;;;;;3.22;1.63;;;34.70;53.10;;;;;;4959622;28;20105;-71
2021/12/18 08:38:20;;;;;;;6.47;1.63;;;34.60;53.50;;;;;;4956609;28;20116;-73
2021/12/18 08:40:50;;;;;;;1.67;1.23;;;34.50;53.50;;;;;;4958302;28;20147;-70
2021/12/18 08:43:17;;;;;;;3.00;2.05;;;34.40;54.00;;;;;;4954518;28;20038;-71
2021/12/18 08:45:44;;;;;;;3.45;1.95;;;34.30;54.20;;;;;;4959048;28;20398;-70
2021/12/18 08:48:11;;;;;;;2.83;1.73;;;34.10;54.50;;;;;;4958007;28;20037;-68
2021/12/18 08:50:38;;;;;;;2.53;2.08;;;34.10;54.40;;;;;;4958419;28;20026;-67
2021/12/18 08:53:05;;;;;;;3.13;1.92;;;33.90;55.00;;;;;;4962942;28;20026;-68
2021/12/18 08:55:32;;;;;;;3.70;1.38;;;33.90;55.50;;;;;;4960660;28;20038;-67
2021/12/18 08:57:59;;;;;;;2.10;1.27;;;33.80;56.30;;;;;;4958400;28;20027;-68
2021/12/18 09:00:29;;;;;;;2.53;1.40;;;33.70;56.60;;;;;;4958447;28;20066;-69
2021/12/18 09:02:57;;;;;;;1.95;1.20;;;33.60;56.90;;;;;;4957823;28;20129;-70
2021/12/18 09:05:25;;;;;;;3.00;1.58;;;33.40;57.40;;;;;;4956250;28;20035;-67
2021/12/18 09:07:52;;;;;;;3.10;1.73;;;33.20;58.00;;;;;;4956457;28;20027;-69
2021/12/18 09:10:20;;;;;;;5.05;2.70;;;33.10;58.20;;;;;;4957163;28;20048;-67
2021/12/18 09:12:48;;;;;;;2.47;1.77;;;33.00;58.60;;;;;;4962058;28;20030;-69
2021/12/18 09:15:15;;;;;;;1.98;1.80;;;33.00;58.90;;;;;;4958089;28;20026;-67
2021/12/18 09:17:42;;;;;;;2.35;1.30;;;32.90;59.20;;;;;;4956964;28;20038;-67
2021/12/18 09:20:09;;;;;;;3.25;1.95;;;32.90;59.30;;;;;;4955800;28;20683;-65
2021/12/18 09:22:36;;;;;;;3.05;2.00;;;32.90;59.30;;;;;;4956722;28;20564;-68
2021/12/18 09:25:05;;;;;;;10.65;1.98;;;32.80;59.40;;;;;;4956877;28;20496;-68
2021/12/18 09:27:34;;;;;;;4.30;1.40;;;32.80;59.50;;;;;;4956763;28;20543;-68
2021/12/18 09:30:02;;;;;;;3.78;1.45;;;32.80;59.70;;;;;;4955601;28;20107;-70
2021/12/18 09:32:30;;;;;;;3.47;1.30;;;32.70;60.60;;;;;;4957549;28;20092;-70
2021/12/18 09:34:57;;;;;;;5.28;1.40;;;32.70;60.30;;;;;;4955484;28;20431;-68
2021/12/18 09:37:24;;;;;;;2.28;1.23;;;32.70;60.40;;;;;;4956396;28;20038;-72
2021/12/18 09:39:51;;;;;;;4.40;1.80;;;32.60;61.00;;;;;;4955940;28;20037;-70
2021/12/18 09:42:18;;;;;;;3.00;1.55;;;32.60;61.00;;;;;;4956307;28;20586;-69
2021/12/18 09:44:49;;;;;;;2.22;1.33;;;32.60;61.30;;;;;;4956952;28;20510;-67
2021/12/18 09:47:16;;;;;;;2.13;1.35;;;32.50;61.00;;;;;;4956560;28;20026;-72
2021/12/18 09:49:45;;;;;;;2.97;1.45;;;32.50;61.10;;;;;;4957290;28;20117;-74
2021/12/18 09:52:12;;;;;;;2.47;1.48;;;32.50;61.80;;;;;;4953856;28;20122;-70
2021/12/18 09:54:39;;;;;;;3.65;1.60;;;32.40;61.60;;;;;;4956315;28;20026;-67
2021/12/18 09:57:06;;;;;;;1.98;1.23;;;32.40;61.60;;;;;;4956190;28;20023;-73
2021/12/18 09:59:35;;;;;;;3.28;1.60;;;32.40;61.30;;;;;;4954998;28;20031;-70
2021/12/18 10:02:02;;;;;;;3.60;1.40;;;32.40;61.60;;;;;;4977779;28;20394;-70
2021/12/18 10:04:33;;;;;;;4.47;1.58;;;32.40;61.70;;;;;;4956287;28;20424;-69
2021/12/18 10:07:14;;;;;;;3.22;1.20;;;32.30;61.80;;;;;;4957935;28;20350;-69
2021/12/18 10:09:41;;;;;;;2.60;1.52;;;32.20;62.50;;;;;;4958400;28;20027;-69
2021/12/18 10:12:34;;;;;;;2.45;1.30;;;32.10;63.10;;;;;;4959458;28;20027;-65
2021/12/18 10:15:13;;;;;;;3.75;1.48;;;32.10;64.10;;;;;;4954932;28;20051;-66
2021/12/18 10:17:42;;;;;;;3.45;1.45;;;32.00;63.80;;;;;;4966687;28;20033;-68
2021/12/18 10:20:22;;;;;;;4.40;1.42;;;31.90;64.20;;;;;;4956702;28;20466;-69
2021/12/18 10:23:07;;;;;;;5.72;1.75;;;31.80;65.00;;;;;;4961215;28;20038;-68
2021/12/18 10:25:40;;;;;;;3.78;1.17;;;31.70;65.30;;;;;;4963838;28;20019;-67
2021/12/18 10:28:20;;;;;;;2.45;1.50;;;31.80;65.00;;;;;;4961682;28;20035;-67
2021/12/18 10:30:55;;;;;;;4.75;1.65;;;31.70;64.90;;;;;;4960575;28;20092;-68
2021/12/18 10:33:28;;;;;;;3.95;1.65;;;31.70;65.60;;;;;;4956350;28;20440;-67
2021/12/18 10:36:00;;;;;;;2.88;1.48;;;31.70;65.60;;;;;;4959720;28;20462;-65
2021/12/18 10:38:52;;;;;;;2.78;1.52;;;31.60;65.70;;;;;;4960611;28;20030;-65
2021/12/18 10:41:39;;;;;;;2.80;1.40;;;31.70;66.20;;;;;;4955940;28;20244;-66
2021/12/18 10:44:11;;;;;;;5.00;1.50;;;31.60;66.20;;;;;;4955663;28;20039;-68
2021/12/18 10:46:44;;;;;;;3.10;1.63;;;31.60;66.50;;;;;;4960695;28;20031;-67
2021/12/18 10:49:16;;;;;;;5.40;1.40;;;31.60;66.50;;;;;;4962299;28;20180;-65
2021/12/18 10:51:46;;;;;;;4.50;1.40;;;31.50;67.20;;;;;;4961827;28;20023;-64
2021/12/18 10:54:22;;;;;;;3.65;1.23;;;31.50;67.10;;;;;;4986831;28;20034;-68
2021/12/18 10:56:52;;;;;;;2.35;1.30;;;31.50;67.40;;;;;;4960480;28;20596;-66
2021/12/18 10:59:31;;;;;;;4.32;1.38;;;31.40;67.50;;;;;;4961828;28;20034;-65
2021/12/18 11:02:01;;;;;;;3.55;1.40;;;31.40;67.80;;;;;;4960448;28;20085;-66
2021/12/18 11:04:34;;;;;;;3.22;1.60;;;31.30;67.70;;;;;;4960003;28;20038;-66
2021/12/18 11:07:24;;;;;;;2.25;1.42;;;31.30;68.10;;;;;;4954348;28;20026;-66
2021/12/18 11:15:22;;;;;;;2.05;1.40;;;31.20;68.50;;;;;;4956499;28;20065;-65
2021/12/18 11:17:50;;;;;;;4.05;1.40;;;31.30;68.30;;;;;;4962129;28;20035;-64
2021/12/18 11:20:18;;;;;;;2.45;1.42;;;31.20;68.20;;;;;;4966819;28;20498;-67
2021/12/18 11:22:45;;;;;;;4.47;1.63;;;31.10;68.90;;;;;;4962898;28;20054;-64
2021/12/18 11:25:13;;;;;;;2.10;1.02;;;31.00;69.30;;;;;;4964163;28;20023;-64
2021/12/18 11:27:40;;;;;;;2.22;1.45;;;31.00;69.30;;;;;;4962781;28;20027;-63
2021/12/18 11:30:13;;;;;;;3.95;1.30;;;31.00;69.70;;;;;;4962457;28;20449;-69
2021/12/18 11:32:43;;;;;;;1.95;1.08;;;30.80;70.90;;;;;;4963278;28;20035;-64
2021/12/18 11:35:20;;;;;;;5.88;1.33;;;30.70;71.90;;;;;;4963030;28;20019;-62
2021/12/18 11:37:50;;;;;;;2.35;1.20;;;30.70;72.60;;;;;;4963331;28;20448;-64
2021/12/18 11:40:21;;;;;;;3.08;1.40;;;30.60;72.70;;;;;;4963858;28;20114;-67
2021/12/18 11:42:48;;;;;;;2.22;1.42;;;30.70;73.30;;;;;;4965699;28;20038;-64
2021/12/18 11:45:15;;;;;;;5.20;1.40;;;30.70;74.00;;;;;;4965173;28;20051;-67
2021/12/18 11:47:56;;;;;;;3.10;1.20;;;30.50;74.20;;;;;;4966150;28;20117;-63
2021/12/18 11:50:34;;;;;;;3.22;1.52;;;30.50;74.80;;;;;;4962559;28;20038;-66
2021/12/18 11:53:05;;;;;;;2.28;1.33;;;30.40;75.80;;;;;;4957036;28;20031;-66
2021/12/18 11:55:36;;;;;;;3.25;1.40;;;30.40;76.60;;;;;;4964034;28;20035;-66
2021/12/18 11:58:14;;;;;;;3.22;1.45;;;30.40;77.60;;;;;;4965392;28;20049;-67
2021/12/18 12:01:00;;;;;;;12.65;2.22;;;30.30;79.00;;;;;;4965457;28;20042;-65
2021/12/18 12:03:38;;;;;;;21.17;2.95;;;30.10;72.00;;;;;;4980596;28;20119;-64
2021/12/18 12:06:30;;;;;;;21.77;2.13;;;29.50;69.70;;;;;;5013325;28;20065;-67
2021/12/18 12:12:04;;;;;;;6.90;1.70;;;28.20;75.20;;;;;;5013107;28;20112;-71
2021/12/18 12:14:36;;;;;;;11.32;2.17;;;27.60;81.10;;;;;;5014110;28;20110;-64
2021/12/18 12:17:04;;;;;;;10.88;1.08;;;27.00;87.10;;;;;;5012450;28;20137;-68
2021/12/18 12:19:34;;;;;;;5.55;1.05;;;26.40;92.30;;;;;;5012338;28;20056;-65
2021/12/18 12:22:04;;;;;;;7.25;1.52;;;25.70;96.60;;;;;;5012557;28;20496;-68
2021/12/18 12:25:02;;;;;;;7.43;1.48;;;25.10;99.90;;;;;;5010365;28;20700;-67
2021/12/18 12:27:40;;;;;;;3.42;1.40;;;24.40;99.90;;;;;;4992821;28;20037;-71
2021/12/18 12:30:11;;;;;;;3.55;1.20;;;23.70;99.90;;;;;;5009289;28;20034;-67
2021/12/18 12:32:39;;;;;;;2.90;1.25;;;23.30;99.90;;;;;;5013682;28;20030;-74
2021/12/18 12:35:13;;;;;;;5.05;1.67;;;22.90;99.90;;;;;;5008202;28;20034;-73
2021/12/18 12:37:47;;;;;;;3.15;1.25;;;22.60;99.90;;;;;;5013241;28;20034;-68
2021/12/18 12:40:32;;;;;;;4.25;1.00;;;22.40;99.90;;;;;;5012631;28;20056;-73
2021/12/18 12:43:20;;;;;;;2.92;0.90;;;22.20;99.90;;;;;;5012515;28;20032;-67
2021/12/18 12:45:51;;;;;;;3.55;1.38;;;22.20;99.90;;;;;;5014003;28;20041;-68
2021/12/18 12:48:19;;;;;;;4.20;1.52;;;22.20;99.90;;;;;;5012353;28;20483;-69
2021/12/18 12:51:12;;;;;;;12.20;2.28;;;22.10;99.90;;;;;;5007863;28;20035;-68
2021/12/18 12:53:49;;;;;;;3.95;1.85;;;21.90;99.90;;;;;;5007986;28;20070;-67
2021/12/18 12:56:20;;;;;;;3.72;1.88;;;21.60;99.90;;;;;;5028200;28;20032;-68
2021/12/18 12:59:07;;;;;;;4.18;1.52;;;21.40;99.90;;;;;;5011749;28;20024;-69
2021/12/18 13:01:38;;;;;;;8.38;2.92;;;21.30;99.90;;;;;;5001857;28;20043;-67
2021/12/18 13:04:05;;;;;;;6.35;1.70;;;21.20;99.90;;;;;;5014108;28;20032;-72
2021/12/18 13:06:32;;;;;;;5.57;2.28;;;21.20;99.90;;;;;;5014003;28;20035;-74
2021/12/18 13:09:02;;;;;;;6.82;2.45;;;21.10;99.90;;;;;;5011201;28;20031;-74
2021/12/18 13:11:30;;;;;;;6.43;2.13;;;21.00;99.90;;;;;;5013357;28;20024;-73
2021/12/18 13:13:56;;;;;;;6.05;3.40;;;20.90;99.90;;;;;;5013254;28;20083;-69
2021/12/18 13:16:24;;;;;;;8.63;2.17;;;20.90;99.90;;;;;;5027397;28;20073;-73
2021/12/18 13:18:54;;;;;;;8.98;2.08;;;20.90;99.90;;;;;;5013503;28;20031;-73
2021/12/18 13:21:27;;;;;;;4.82;2.63;;;20.80;99.90;;;;;;5013789;28;20493;-72
2021/12/18 13:24:00;;;;;;;3.83;1.80;;;20.80;99.90;;;;;;5012424;28;20055;-68
2021/12/18 13:26:41;;;;;;;4.75;2.38;;;20.80;99.90;;;;;;5011563;28;20025;-72
2021/12/18 13:29:08;;;;;;;4.88;2.22;;;20.80;99.90;;;;;;4987206;28;20545;-69
2021/12/18 13:31:49;;;;;;;6.63;2.75;;;20.80;99.90;;;;;;4967183;28;20038;-67
2021/12/18 13:34:38;;;;;;;5.97;2.75;;;20.90;99.90;;;;;;4974797;28;20034;-73
2021/12/18 13:37:08;;;;;;;5.70;2.83;;;20.90;99.90;;;;;;4967486;28;20585;-68
2021/12/18 13:39:43;;;;;;;8.27;2.28;;;20.90;99.90;;;;;;4967164;28;20135;-66
2021/12/18 13:42:11;;;;;;;6.43;2.25;;;21.00;99.90;;;;;;4960593;28;20153;-73
2021/12/18 13:44:43;;;;;;;8.85;3.00;;;21.10;99.90;;;;;;4965692;28;20050;-74
2021/12/18 13:47:25;;;;;;;4.78;2.28;;;21.20;99.90;;;;;;4965373;28;20071;-69
2021/12/18 13:50:05;;;;;;;6.55;2.10;;;21.20;99.90;;;;;;4966364;28;20483;-67
2021/12/18 13:52:37;;;;;;;6.35;2.28;;;21.20;99.90;;;;;;4972030;28;20040;-70